EW5969 Waldorf MD US current weather conditions

sailwx.info

Wind from 341 at 4 knots gusting 8

Air temperature 30.6° C
Dewpoint 22.2° C

Last reported at 2020-Jul-11 19:01 UTC.
Time now 2020-Jul-11 19:58 UTC

Location: N 38°39' W 076°56'.
View on Google Maps.

See reports from other nearby stations

  
Tides and Currents Weather Stations Pressure Air Temp Water Temp Dewpoint Dewpoint Depression Visibility Wind Speed Wind Dir Waves Ship Positions
date/time (UTC)wind fromknots sea level pressurealtimeterstation pressurevisibilityair tempwater tempwave heightnotes
2020-Jul-11 19:01 341 4 gusting 8 30.6
2020-Jul-11 18:46 346 4 gusting 7 30.6
2020-Jul-11 18:31 012 4 gusting 8 29.4
2020-Jul-11 18:17 013 2 gusting 8 28.9
2020-Jul-11 17:46 297 3 gusting 7 30.6
2020-Jul-11 17:30 306 3 gusting 6 30.6
2020-Jul-11 17:15 005 0 gusting 7 30.0
2020-Jul-11 17:00 326 4 gusting 7 30.0
2020-Jul-11 16:46 293 1 gusting 5 29.4
2020-Jul-11 16:31 005 3 gusting 6 29.4
2020-Jul-11 16:16 334 3 gusting 6 29.4
2020-Jul-11 16:01 037 4 gusting 9 29.4
2020-Jul-11 15:45 039 2 gusting 6 28.9
2020-Jul-11 15:31 346 2 gusting 6 28.3
2020-Jul-11 15:15 315 2 gusting 6 28.9
2020-Jul-11 15:01 273 28.9
2020-Jul-11 14:46 248 28.3
2020-Jul-11 14:30 273 27.8
2020-Jul-11 14:15 194 0 gusting 3 26.7
2020-Jul-11 14:00 260 0 gusting 4 26.1
2020-Jul-11 13:45 256 1 gusting 6 25.6
2020-Jul-11 13:30 308 0 gusting 6 25.0
2020-Jul-11 13:15 295 2 gusting 5 25.0
2020-Jul-11 13:00 223 24.4
2020-Jul-11 12:45 219 1 gusting 6 24.4
2020-Jul-11 12:30 220 23.9
2020-Jul-11 12:15 239 23.9
2020-Jul-11 12:00 247 0 gusting 5 23.9
2020-Jul-11 11:45 261 0 gusting 3 23.9
2020-Jul-11 11:30 261 23.3
2020-Jul-11 11:15 269 1 gusting 5 23.3
2020-Jul-11 11:00 232 23.3
2020-Jul-11 10:45 234 0 gusting 3 22.8
2020-Jul-11 10:34 282 22.8
2020-Jul-11 10:16 263 22.8
2020-Jul-11 10:01 263 0 gusting 3 22.8
2020-Jul-11 09:32 268 0 gusting 2 22.8
2020-Jul-11 09:16 268 23.3
2020-Jul-11 09:02 268 23.3
2020-Jul-11 08:46 268 23.3
2020-Jul-11 08:33 268 23.3
2020-Jul-11 08:16 268 23.3
2020-Jul-11 08:01 269 0 gusting 3 23.9
2020-Jul-11 07:46 286 1 gusting 4 23.9
2020-Jul-11 07:31 269 2 gusting 6 23.9
2020-Jul-11 07:16 263 2 gusting 7 23.9
2020-Jul-11 07:00 278 2 gusting 6 23.9
2020-Jul-11 06:45 277 2 gusting 8 23.9
2020-Jul-11 06:32 293 2 gusting 7 24.4
2020-Jul-11 06:16 244 4 gusting 8 24.4
2020-Jul-11 06:00 254 2 gusting 4 24.4
2020-Jul-11 05:45 268 3 gusting 6 25.0
2020-Jul-11 05:31 296 3 gusting 8 25.0
2020-Jul-11 05:16 290 4 gusting 9 25.6
2020-Jul-11 05:01 297 5 gusting 9 25.6
2020-Jul-11 04:45 266 3 gusting 6 25.6
2020-Jul-11 04:31 265 25.6
2020-Jul-11 04:16 242 0 gusting 5 25.6
2020-Jul-11 04:01 213 3 gusting 7 25.6
2020-Jul-11 03:45 187 25.0
2020-Jul-11 03:31 182 25.6
2020-Jul-11 03:16 180 0 gusting 3 25.6
2020-Jul-11 03:00 180 0 gusting 4 25.6
2020-Jul-11 02:46 163 1 gusting 3 25.6
2020-Jul-11 02:30 163 0 gusting 4 25.6
2020-Jul-11 02:15 121 25.6
2020-Jul-11 02:00 113 25.6
2020-Jul-11 01:45 094 25.6
2020-Jul-11 01:30 094 26.1
2020-Jul-11 01:15 094 26.7
2020-Jul-11 01:01 094 26.7
2020-Jul-11 00:45 144 27.2
2020-Jul-11 00:30 144 27.8
2020-Jul-11 00:15 143 0 gusting 2 28.3
2020-Jul-11 00:00 143 0 gusting 2 29.4
2020-Jul-10 23:31 098 29.4
2020-Jul-10 23:16 083 29.4
2020-Jul-10 23:01 083 1 gusting 5 29.4
2020-Jul-10 22:46 086 0 gusting 5 29.4
2020-Jul-10 22:31 084 4 gusting 6 29.4
2020-Jul-10 22:15 073 2 gusting 6 29.4
2020-Jul-10 22:00 073 3 gusting 6 29.4
2020-Jul-10 21:45 101 4 gusting 6 30.6
2020-Jul-10 21:30 032 1 gusting 6 31.1
2020-Jul-10 21:15 044 1 gusting 5 30.6
2020-Jul-10 21:00 053 3 gusting 6 31.1
2020-Jul-10 20:45 355 30.6
2020-Jul-10 20:30 281 1 gusting 6 30.0
2020-Jul-10 20:15 028 3 gusting 7 30.0
2020-Jul-10 20:00 072 1 gusting 6 29.4
2020-Jul-10 19:45 056 2 gusting 5 28.9
2020-Jul-10 19:30 049 2 gusting 5 28.3
2020-Jul-10 19:15 074 3 gusting 8 28.3
2020-Jul-10 19:00 096 6 gusting 8 28.3
2020-Jul-10 18:45 018 4 gusting 7 29.4
2020-Jul-10 18:30 348 4 gusting 8 29.4
2020-Jul-10 18:15 301 5 gusting 11 29.4
2020-Jul-10 18:00 355 2 gusting 8 28.9
2020-Jul-10 17:45 360 5 gusting 10 29.4
2020-Jul-10 17:31 012 6 gusting 10 28.9
2020-Jul-10 17:16 055 4 gusting 11 28.9
2020-Jul-10 17:01 331 5 gusting 11 28.9
2020-Jul-10 16:46 027 4 gusting 11 28.3
2020-Jul-10 16:31 034 6 gusting 10 28.3
2020-Jul-10 16:16 348 3 gusting 6 28.3
2020-Jul-10 16:01 338 4 gusting 6 27.8
2020-Jul-10 15:45 034 6 gusting 9 27.2
2020-Jul-10 15:30 034 6 gusting 11 27.2
2020-Jul-10 15:16 081 7 gusting 11 27.2
2020-Jul-10 15:00 347 4 gusting 9 26.7
2020-Jul-10 14:46 022 5 gusting 8 26.7
2020-Jul-10 14:30 055 4 gusting 10 26.7
2020-Jul-10 14:15 032 3 gusting 8 26.1
2020-Jul-10 14:00 025 4 gusting 8 25.6
2020-Jul-10 13:45 067 3 gusting 7 25.0
2020-Jul-10 13:30 360 3 gusting 10 25.0
2020-Jul-10 13:15 054 5 gusting 9 24.4
2020-Jul-10 13:00 058 5 gusting 8 24.4
2020-Jul-10 12:45 067 3 gusting 6 24.4
2020-Jul-10 12:30 063 2 gusting 10 23.9
2020-Jul-10 12:15 042 4 gusting 7 23.9
2020-Jul-10 12:00 058 2 gusting 6 23.3
2020-Jul-10 11:47 065 3 gusting 6 23.3
2020-Jul-10 11:31 056 3 gusting 6 23.3
2020-Jul-10 11:16 042 3 gusting 6 23.3
2020-Jul-10 11:01 044 2 gusting 6 22.8
2020-Jul-10 10:46 049 1 gusting 5 22.8
2020-Jul-10 10:31 050 0 gusting 4 22.8
2020-Jul-10 10:16 071 0 gusting 4 22.8
2020-Jul-10 10:03 036 1 gusting 4 22.8
2020-Jul-10 09:46 046 1 gusting 4 22.8
2020-Jul-10 09:31 030 22.8
2020-Jul-10 09:16 031 1 gusting 4 22.8
2020-Jul-10 09:01 028 0 gusting 3 22.8
2020-Jul-10 08:46 060 0 gusting 3 22.8
2020-Jul-10 08:30 060 22.8
2020-Jul-10 08:16 060 22.8
2020-Jul-10 08:01 060 23.3
2020-Jul-10 07:45 071 2 gusting 6 22.8
2020-Jul-10 07:31 064 1 gusting 3 22.8
2020-Jul-10 07:15 065 23.3
2020-Jul-10 07:01 065 1 gusting 3 23.3
2020-Jul-10 06:45 065 1 gusting 3 23.3
2020-Jul-10 06:30 067 1 gusting 3 23.3
2020-Jul-10 06:15 067 1 gusting 4 23.3
2020-Jul-10 06:00 079 0 gusting 3 23.3
2020-Jul-10 05:45 079 1 gusting 4 22.8
2020-Jul-10 05:31 080 22.8
2020-Jul-10 05:16 080 22.8
2020-Jul-10 05:01 150 22.8
2020-Jul-10 04:45 150 23.3
2020-Jul-10 04:30 150 23.3
2020-Jul-10 04:15 150 23.9
2020-Jul-10 04:00 150 23.9
2020-Jul-10 03:45 150 24.4
2020-Jul-10 03:30 150 25.0
2020-Jul-10 03:15 150 25.0
2020-Jul-10 03:01 150 25.0
2020-Jul-10 02:45 142 0 gusting 4 25.6
2020-Jul-10 02:30 170 0 gusting 6 25.6
2020-Jul-10 02:15 167 0 gusting 5 25.6
2020-Jul-10 02:00 142 1 gusting 4 25.6
2020-Jul-10 01:46 149 26.1
2020-Jul-10 01:30 115 0 gusting 4 26.1
2020-Jul-10 01:15 110 0 gusting 2 26.7
2020-Jul-10 01:00 103 0 gusting 6 26.7
2020-Jul-10 00:45 099 26.7
2020-Jul-10 00:30 099 0 gusting 2 27.2
2020-Jul-10 00:00 103 0 gusting 5 28.3
2020-Jul-09 23:45 113 1 gusting 6 28.3
2020-Jul-09 23:30 135 2 gusting 8 28.9
2020-Jul-09 23:15 109 1 gusting 6 28.3
2020-Jul-09 23:00 110 2 gusting 6 28.9
2020-Jul-09 22:45 103 4 gusting 11 29.4
2020-Jul-09 22:30 098 2 gusting 9 29.4
2020-Jul-09 22:15 119 1 gusting 6 30.0
2020-Jul-09 22:00 150 4 gusting 9 30.0
2020-Jul-09 21:45 078 6 gusting 11 30.0
2020-Jul-09 21:30 097 3 gusting 6 29.4
2020-Jul-09 21:15 078 5 gusting 12 30.0
2020-Jul-09 21:00 096 2 gusting 6 30.0
2020-Jul-09 20:45 142 5 gusting 8 30.6
2020-Jul-09 20:30 129 4 gusting 9 30.0
2020-Jul-09 20:01 109 4 gusting 8 30.6
2020-Jul-09 19:47 167 3 gusting 8 30.0
2020-Jul-09 19:30 088 6 gusting 11 30.0
2020-Jul-09 19:16 164 5 gusting 9 30.0
2020-Jul-09 19:01 115 0 gusting 7 30.0